sensor_id;sensor_type;location;lat;lon;timestamp;P1;durP1;ratioP1;P2;durP2;ratioP2
63320;SDS011;49449;48.800;9.534;2023-02-15T00:02:03;15.57;;;10.15;;
63320;SDS011;49449;48.800;9.534;2023-02-15T00:04:30;12.75;;;9.32;;
63320;SDS011;49449;48.800;9.534;2023-02-15T00:09:52;14.38;;;10.10;;
63320;SDS011;49449;48.800;9.534;2023-02-15T00:12:20;12.77;;;9.05;;
63320;SDS011;49449;48.800;9.534;2023-02-15T00:14:48;12.48;;;9.30;;
63320;SDS011;49449;48.800;9.534;2023-02-15T00:17:15;13.77;;;9.95;;
63320;SDS011;49449;48.800;9.534;2023-02-15T00:19:43;14.80;;;9.27;;
63320;SDS011;49449;48.800;9.534;2023-02-15T00:22:11;13.70;;;9.77;;
63320;SDS011;49449;48.800;9.534;2023-02-15T00:24:40;14.45;;;9.32;;
63320;SDS011;49449;48.800;9.534;2023-02-15T00:27:08;12.57;;;9.32;;
63320;SDS011;49449;48.800;9.534;2023-02-15T00:29:36;12.50;;;8.90;;
63320;SDS011;49449;48.800;9.534;2023-02-15T00:32:04;12.45;;;8.82;;
63320;SDS011;49449;48.800;9.534;2023-02-15T00:34:32;13.00;;;9.38;;
63320;SDS011;49449;48.800;9.534;2023-02-15T00:37:00;12.75;;;8.88;;
63320;SDS011;49449;48.800;9.534;2023-02-15T00:39:27;12.63;;;9.32;;
63320;SDS011;49449;48.800;9.534;2023-02-15T00:41:56;12.63;;;9.50;;
63320;SDS011;49449;48.800;9.534;2023-02-15T00:44:24;13.40;;;9.00;;
63320;SDS011;49449;48.800;9.534;2023-02-15T00:46:52;13.00;;;9.65;;
63320;SDS011;49449;48.800;9.534;2023-02-15T00:49:20;13.10;;;9.57;;
63320;SDS011;49449;48.800;9.534;2023-02-15T00:51:47;12.13;;;8.90;;
63320;SDS011;49449;48.800;9.534;2023-02-15T00:54:15;12.90;;;9.35;;
63320;SDS011;49449;48.800;9.534;2023-02-15T00:56:43;12.23;;;9.10;;
63320;SDS011;49449;48.800;9.534;2023-02-15T00:59:12;12.82;;;9.30;;
63320;SDS011;49449;48.800;9.534;2023-02-15T01:01:40;12.50;;;9.02;;
63320;SDS011;49449;48.800;9.534;2023-02-15T01:04:07;13.35;;;9.32;;
63320;SDS011;49449;48.800;9.534;2023-02-15T01:06:35;14.55;;;9.10;;
63320;SDS011;49449;48.800;9.534;2023-02-15T01:09:03;12.55;;;9.15;;
63320;SDS011;49449;48.800;9.534;2023-02-15T01:11:31;13.70;;;9.00;;
63320;SDS011;49449;48.800;9.534;2023-02-15T01:13:58;12.10;;;8.88;;
63320;SDS011;49449;48.800;9.534;2023-02-15T01:16:28;13.68;;;8.70;;
63320;SDS011;49449;48.800;9.534;2023-02-15T01:18:56;12.32;;;8.85;;
63320;SDS011;49449;48.800;9.534;2023-02-15T01:21:24;12.38;;;8.90;;
63320;SDS011;49449;48.800;9.534;2023-02-15T01:23:53;11.20;;;8.45;;
63320;SDS011;49449;48.800;9.534;2023-02-15T01:26:21;12.65;;;9.63;;
63320;SDS011;49449;48.800;9.534;2023-02-15T01:28:48;13.68;;;8.73;;
63320;SDS011;49449;48.800;9.534;2023-02-15T01:31:17;12.85;;;9.18;;
63320;SDS011;49449;48.800;9.534;2023-02-15T01:33:48;12.40;;;8.68;;
63320;SDS011;49449;48.800;9.534;2023-02-15T01:36:16;12.15;;;8.27;;
63320;SDS011;49449;48.800;9.534;2023-02-15T01:38:44;13.05;;;9.27;;
63320;SDS011;49449;48.800;9.534;2023-02-15T01:41:12;12.85;;;10.15;;
63320;SDS011;49449;48.800;9.534;2023-02-15T01:43:54;12.95;;;8.82;;
63320;SDS011;49449;48.800;9.534;2023-02-15T01:46:24;12.98;;;8.75;;
63320;SDS011;49449;48.800;9.534;2023-02-15T01:48:59;13.63;;;9.40;;
63320;SDS011;49449;48.800;9.534;2023-02-15T01:51:30;12.02;;;8.82;;
63320;SDS011;49449;48.800;9.534;2023-02-15T01:54:02;10.70;;;8.48;;
63320;SDS011;49449;48.800;9.534;2023-02-15T01:56:37;12.32;;;9.82;;
63320;SDS011;49449;48.800;9.534;2023-02-15T01:59:08;11.45;;;8.43;;
63320;SDS011;49449;48.800;9.534;2023-02-15T02:01:40;10.73;;;8.23;;
63320;SDS011;49449;48.800;9.534;2023-02-15T02:04:11;14.02;;;9.60;;
63320;SDS011;49449;48.800;9.534;2023-02-15T02:06:45;11.77;;;8.98;;
63320;SDS011;49449;48.800;9.534;2023-02-15T02:09:15;11.93;;;7.65;;
63320;SDS011;49449;48.800;9.534;2023-02-15T02:11:44;11.55;;;8.68;;
63320;SDS011;49449;48.800;9.534;2023-02-15T02:14:14;12.40;;;9.43;;
63320;SDS011;49449;48.800;9.534;2023-02-15T02:16:45;12.02;;;8.52;;
63320;SDS011;49449;48.800;9.534;2023-02-15T02:19:32;12.52;;;9.02;;
63320;SDS011;49449;48.800;9.534;2023-02-15T02:25:52;12.00;;;8.25;;
63320;SDS011;49449;48.800;9.534;2023-02-15T02:28:52;11.05;;;9.40;;
63320;SDS011;49449;48.800;9.534;2023-02-15T02:31:39;12.48;;;8.55;;
63320;SDS011;49449;48.800;9.534;2023-02-15T02:34:23;13.98;;;9.00;;
63320;SDS011;49449;48.800;9.534;2023-02-15T02:36:57;13.05;;;8.65;;
63320;SDS011;49449;48.800;9.534;2023-02-15T02:39:31;12.15;;;9.43;;
63320;SDS011;49449;48.800;9.534;2023-02-15T02:42:05;13.18;;;9.55;;
63320;SDS011;49449;48.800;9.534;2023-02-15T02:44:40;11.25;;;8.35;;
63320;SDS011;49449;48.800;9.534;2023-02-15T02:47:11;11.82;;;8.80;;
63320;SDS011;49449;48.800;9.534;2023-02-15T02:49:47;11.95;;;8.50;;
63320;SDS011;49449;48.800;9.534;2023-02-15T02:55:03;11.80;;;8.90;;
63320;SDS011;49449;48.800;9.534;2023-02-15T02:57:35;11.25;;;8.20;;
63320;SDS011;49449;48.800;9.534;2023-02-15T03:00:08;10.60;;;7.97;;
63320;SDS011;49449;48.800;9.534;2023-02-15T03:02:37;10.35;;;8.35;;
63320;SDS011;49449;48.800;9.534;2023-02-15T03:05:13;12.13;;;8.90;;
63320;SDS011;49449;48.800;9.534;2023-02-15T03:07:45;12.55;;;9.52;;
63320;SDS011;49449;48.800;9.534;2023-02-15T03:10:17;11.43;;;8.18;;
63320;SDS011;49449;48.800;9.534;2023-02-15T03:12:48;12.05;;;8.95;;
63320;SDS011;49449;48.800;9.534;2023-02-15T03:15:18;11.85;;;8.85;;
63320;SDS011;49449;48.800;9.534;2023-02-15T03:17:49;11.10;;;7.82;;
63320;SDS011;49449;48.800;9.534;2023-02-15T03:20:24;12.68;;;9.55;;
63320;SDS011;49449;48.800;9.534;2023-02-15T03:22:56;12.23;;;9.05;;
63320;SDS011;49449;48.800;9.534;2023-02-15T03:25:30;16.63;;;9.30;;
63320;SDS011;49449;48.800;9.534;2023-02-15T03:28:01;14.45;;;9.60;;
63320;SDS011;49449;48.800;9.534;2023-02-15T03:30:33;13.75;;;10.02;;
63320;SDS011;49449;48.800;9.534;2023-02-15T03:33:02;14.38;;;9.52;;
63320;SDS011;49449;48.800;9.534;2023-02-15T03:35:36;11.52;;;8.13;;
63320;SDS011;49449;48.800;9.534;2023-02-15T03:38:11;12.40;;;9.73;;
63320;SDS011;49449;48.800;9.534;2023-02-15T03:40:44;11.27;;;8.68;;
63320;SDS011;49449;48.800;9.534;2023-02-15T03:43:32;13.32;;;9.27;;
63320;SDS011;49449;48.800;9.534;2023-02-15T03:46:07;11.70;;;8.70;;
63320;SDS011;49449;48.800;9.534;2023-02-15T03:48:40;12.85;;;9.60;;
63320;SDS011;49449;48.800;9.534;2023-02-15T03:51:16;13.68;;;9.10;;
63320;SDS011;49449;48.800;9.534;2023-02-15T03:54:03;12.10;;;8.43;;
63320;SDS011;49449;48.800;9.534;2023-02-15T03:56:33;10.90;;;7.45;;
63320;SDS011;49449;48.800;9.534;2023-02-15T03:59:02;12.38;;;8.77;;
63320;SDS011;49449;48.800;9.534;2023-02-15T04:01:49;11.98;;;7.60;;
63320;SDS011;49449;48.800;9.534;2023-02-15T04:04:29;11.20;;;8.20;;
63320;SDS011;49449;48.800;9.534;2023-02-15T04:07:02;12.15;;;8.65;;
63320;SDS011;49449;48.800;9.534;2023-02-15T04:09:31;11.75;;;8.93;;
63320;SDS011;49449;48.800;9.534;2023-02-15T04:12:17;10.73;;;8.80;;
63320;SDS011;49449;48.800;9.534;2023-02-15T04:14:44;12.88;;;8.75;;
63320;SDS011;49449;48.800;9.534;2023-02-15T04:17:30;12.93;;;8.70;;
63320;SDS011;49449;48.800;9.534;2023-02-15T04:19:57;13.43;;;9.75;;
63320;SDS011;49449;48.800;9.534;2023-02-15T04:22:44;12.77;;;8.82;;
63320;SDS011;49449;48.800;9.534;2023-02-15T04:25:29;14.95;;;10.02;;
63320;SDS011;49449;48.800;9.534;2023-02-15T04:27:57;14.73;;;10.23;;
63320;SDS011;49449;48.800;9.534;2023-02-15T04:30:25;11.68;;;8.80;;
63320;SDS011;49449;48.800;9.534;2023-02-15T04:32:53;14.93;;;10.35;;
63320;SDS011;49449;48.800;9.534;2023-02-15T04:35:22;12.35;;;9.23;;
63320;SDS011;49449;48.800;9.534;2023-02-15T04:37:51;13.27;;;10.00;;
63320;SDS011;49449;48.800;9.534;2023-02-15T04:40:19;12.10;;;8.68;;
63320;SDS011;49449;48.800;9.534;2023-02-15T04:42:47;13.18;;;9.48;;
63320;SDS011;49449;48.800;9.534;2023-02-15T04:45:16;14.00;;;9.93;;
63320;SDS011;49449;48.800;9.534;2023-02-15T04:47:44;12.57;;;9.77;;
63320;SDS011;49449;48.800;9.534;2023-02-15T04:50:11;13.25;;;9.60;;
63320;SDS011;49449;48.800;9.534;2023-02-15T04:52:39;12.57;;;8.43;;
63320;SDS011;49449;48.800;9.534;2023-02-15T04:55:08;13.60;;;9.65;;
63320;SDS011;49449;48.800;9.534;2023-02-15T04:57:36;14.98;;;9.32;;
63320;SDS011;49449;48.800;9.534;2023-02-15T05:00:04;12.68;;;9.13;;
63320;SDS011;49449;48.800;9.534;2023-02-15T05:02:34;12.85;;;8.48;;
63320;SDS011;49449;48.800;9.534;2023-02-15T05:05:02;13.05;;;9.73;;
63320;SDS011;49449;48.800;9.534;2023-02-15T05:07:30;12.32;;;9.07;;
63320;SDS011;49449;48.800;9.534;2023-02-15T05:09:58;15.27;;;9.50;;
63320;SDS011;49449;48.800;9.534;2023-02-15T05:12:27;14.25;;;10.07;;
63320;SDS011;49449;48.800;9.534;2023-02-15T05:14:55;13.52;;;9.63;;
63320;SDS011;49449;48.800;9.534;2023-02-15T05:17:22;14.95;;;10.63;;
63320;SDS011;49449;48.800;9.534;2023-02-15T05:19:50;15.30;;;11.23;;
63320;SDS011;49449;48.800;9.534;2023-02-15T05:22:18;15.40;;;11.05;;
63320;SDS011;49449;48.800;9.534;2023-02-15T05:24:46;19.05;;;12.90;;
63320;SDS011;49449;48.800;9.534;2023-02-15T05:27:31;14.80;;;10.68;;
63320;SDS011;49449;48.800;9.534;2023-02-15T05:30:17;12.82;;;9.70;;
63320;SDS011;49449;48.800;9.534;2023-02-15T05:32:45;12.68;;;9.45;;
63320;SDS011;49449;48.800;9.534;2023-02-15T05:35:13;13.60;;;9.60;;
63320;SDS011;49449;48.800;9.534;2023-02-15T05:37:42;13.10;;;9.68;;
63320;SDS011;49449;48.800;9.534;2023-02-15T05:40:10;14.20;;;10.55;;
63320;SDS011;49449;48.800;9.534;2023-02-15T05:42:40;12.55;;;10.00;;
63320;SDS011;49449;48.800;9.534;2023-02-15T05:45:08;15.18;;;10.70;;
63320;SDS011;49449;48.800;9.534;2023-02-15T05:47:35;15.05;;;11.05;;
63320;SDS011;49449;48.800;9.534;2023-02-15T05:50:04;13.93;;;9.98;;
63320;SDS011;49449;48.800;9.534;2023-02-15T05:52:32;14.70;;;11.45;;
63320;SDS011;49449;48.800;9.534;2023-02-15T05:55:00;15.23;;;11.55;;
63320;SDS011;49449;48.800;9.534;2023-02-15T05:57:28;19.33;;;12.07;;
63320;SDS011;49449;48.800;9.534;2023-02-15T05:59:58;14.07;;;9.70;;
63320;SDS011;49449;48.800;9.534;2023-02-15T06:02:25;17.08;;;12.13;;
63320;SDS011;49449;48.800;9.534;2023-02-15T06:04:53;12.93;;;10.40;;
63320;SDS011;49449;48.800;9.534;2023-02-15T06:07:21;16.20;;;10.93;;
63320;SDS011;49449;48.800;9.534;2023-02-15T06:09:48;16.20;;;10.85;;
63320;SDS011;49449;48.800;9.534;2023-02-15T06:12:16;15.95;;;11.43;;
63320;SDS011;49449;48.800;9.534;2023-02-15T06:14:44;13.35;;;9.88;;
63320;SDS011;49449;48.800;9.534;2023-02-15T06:17:13;15.32;;;10.52;;
63320;SDS011;49449;48.800;9.534;2023-02-15T06:19:43;16.35;;;11.88;;
63320;SDS011;49449;48.800;9.534;2023-02-15T06:22:11;15.90;;;11.23;;
63320;SDS011;49449;48.800;9.534;2023-02-15T06:24:40;14.10;;;9.85;;
63320;SDS011;49449;48.800;9.534;2023-02-15T06:27:08;14.95;;;10.73;;
63320;SDS011;49449;48.800;9.534;2023-02-15T06:29:36;13.32;;;9.60;;
63320;SDS011;49449;48.800;9.534;2023-02-15T06:32:04;13.98;;;9.70;;
63320;SDS011;49449;48.800;9.534;2023-02-15T06:34:33;14.68;;;10.38;;
63320;SDS011;49449;48.800;9.534;2023-02-15T06:37:01;16.17;;;10.25;;
63320;SDS011;49449;48.800;9.534;2023-02-15T06:39:29;18.27;;;11.48;;
63320;SDS011;49449;48.800;9.534;2023-02-15T06:41:57;14.70;;;10.27;;
63320;SDS011;49449;48.800;9.534;2023-02-15T06:44:25;14.68;;;10.23;;
63320;SDS011;49449;48.800;9.534;2023-02-15T06:46:53;15.23;;;10.98;;
63320;SDS011;49449;48.800;9.534;2023-02-15T06:49:20;16.30;;;11.20;;
63320;SDS011;49449;48.800;9.534;2023-02-15T06:51:49;16.48;;;11.82;;
63320;SDS011;49449;48.800;9.534;2023-02-15T06:54:17;16.40;;;12.70;;
63320;SDS011;49449;48.800;9.534;2023-02-15T06:56:45;18.27;;;12.75;;
63320;SDS011;49449;48.800;9.534;2023-02-15T06:59:12;15.05;;;11.68;;
63320;SDS011;49449;48.800;9.534;2023-02-15T07:01:40;14.90;;;11.02;;
63320;SDS011;49449;48.800;9.534;2023-02-15T07:04:08;17.02;;;12.27;;
63320;SDS011;49449;48.800;9.534;2023-02-15T07:06:36;15.82;;;10.98;;
63320;SDS011;49449;48.800;9.534;2023-02-15T07:09:05;16.88;;;11.57;;
63320;SDS011;49449;48.800;9.534;2023-02-15T07:11:33;16.50;;;11.38;;
63320;SDS011;49449;48.800;9.534;2023-02-15T07:14:20;14.90;;;11.30;;
63320;SDS011;49449;48.800;9.534;2023-02-15T07:16:48;19.63;;;13.18;;
63320;SDS011;49449;48.800;9.534;2023-02-15T07:19:16;17.35;;;13.38;;
63320;SDS011;49449;48.800;9.534;2023-02-15T07:21:44;21.90;;;15.68;;
63320;SDS011;49449;48.800;9.534;2023-02-15T07:24:14;18.70;;;13.30;;
63320;SDS011;49449;48.800;9.534;2023-02-15T07:26:41;16.17;;;11.93;;
63320;SDS011;49449;48.800;9.534;2023-02-15T07:29:09;18.48;;;12.88;;
63320;SDS011;49449;48.800;9.534;2023-02-15T07:31:37;17.55;;;12.63;;
63320;SDS011;49449;48.800;9.534;2023-02-15T07:34:05;21.15;;;14.77;;
63320;SDS011;49449;48.800;9.534;2023-02-15T07:36:33;18.02;;;12.35;;
63320;SDS011;49449;48.800;9.534;2023-02-15T07:39:01;17.90;;;12.90;;
63320;SDS011;49449;48.800;9.534;2023-02-15T07:41:31;20.50;;;12.32;;
63320;SDS011;49449;48.800;9.534;2023-02-15T07:43:58;17.95;;;12.30;;
63320;SDS011;49449;48.800;9.534;2023-02-15T07:46:26;15.27;;;11.77;;
63320;SDS011;49449;48.800;9.534;2023-02-15T07:48:54;16.52;;;12.18;;
63320;SDS011;49449;48.800;9.534;2023-02-15T07:51:22;15.48;;;11.82;;
63320;SDS011;49449;48.800;9.534;2023-02-15T07:53:49;13.98;;;11.23;;
63320;SDS011;49449;48.800;9.534;2023-02-15T07:56:17;16.80;;;11.88;;
63320;SDS011;49449;48.800;9.534;2023-02-15T07:58:47;17.25;;;13.23;;
63320;SDS011;49449;48.800;9.534;2023-02-15T08:01:22;17.23;;;12.18;;
63320;SDS011;49449;48.800;9.534;2023-02-15T08:03:51;17.88;;;12.90;;
63320;SDS011;49449;48.800;9.534;2023-02-15T08:06:20;20.17;;;13.43;;
63320;SDS011;49449;48.800;9.534;2023-02-15T08:08:49;16.33;;;12.98;;
63320;SDS011;49449;48.800;9.534;2023-02-15T08:11:17;16.50;;;12.50;;
63320;SDS011;49449;48.800;9.534;2023-02-15T08:13:54;19.13;;;13.27;;
63320;SDS011;49449;48.800;9.534;2023-02-15T08:16:26;19.85;;;14.80;;
63320;SDS011;49449;48.800;9.534;2023-02-15T08:18:56;16.98;;;12.50;;
63320;SDS011;49449;48.800;9.534;2023-02-15T08:21:25;17.90;;;13.10;;
63320;SDS011;49449;48.800;9.534;2023-02-15T08:23:54;18.60;;;13.02;;
63320;SDS011;49449;48.800;9.534;2023-02-15T08:26:23;18.15;;;13.05;;
63320;SDS011;49449;48.800;9.534;2023-02-15T08:28:51;17.55;;;12.63;;
63320;SDS011;49449;48.800;9.534;2023-02-15T08:31:21;15.40;;;11.90;;
63320;SDS011;49449;48.800;9.534;2023-02-15T08:33:49;16.23;;;12.63;;
63320;SDS011;49449;48.800;9.534;2023-02-15T08:36:19;15.25;;;12.70;;
63320;SDS011;49449;48.800;9.534;2023-02-15T08:38:49;17.98;;;13.30;;
63320;SDS011;49449;48.800;9.534;2023-02-15T08:41:17;16.23;;;13.25;;
63320;SDS011;49449;48.800;9.534;2023-02-15T08:43:47;16.67;;;13.38;;
63320;SDS011;49449;48.800;9.534;2023-02-15T08:46:18;17.02;;;13.75;;
63320;SDS011;49449;48.800;9.534;2023-02-15T08:48:47;18.65;;;14.68;;
63320;SDS011;49449;48.800;9.534;2023-02-15T08:51:15;18.52;;;14.73;;
63320;SDS011;49449;48.800;9.534;2023-02-15T08:53:46;19.02;;;13.95;;
63320;SDS011;49449;48.800;9.534;2023-02-15T08:56:16;24.13;;;14.52;;
63320;SDS011;49449;48.800;9.534;2023-02-15T08:58:45;21.70;;;14.68;;
63320;SDS011;49449;48.800;9.534;2023-02-15T09:01:13;18.88;;;13.18;;
63320;SDS011;49449;48.800;9.534;2023-02-15T09:03:45;16.35;;;12.38;;
63320;SDS011;49449;48.800;9.534;2023-02-15T09:06:15;11.68;;;8.55;;
63320;SDS011;49449;48.800;9.534;2023-02-15T09:08:44;12.38;;;10.10;;
63320;SDS011;49449;48.800;9.534;2023-02-15T09:11:13;15.32;;;12.60;;
63320;SDS011;49449;48.800;9.534;2023-02-15T09:13:42;17.75;;;14.00;;
63320;SDS011;49449;48.800;9.534;2023-02-15T09:16:11;15.77;;;14.02;;
63320;SDS011;49449;48.800;9.534;2023-02-15T09:18:39;16.67;;;14.18;;
63320;SDS011;49449;48.800;9.534;2023-02-15T09:21:09;17.33;;;13.63;;
63320;SDS011;49449;48.800;9.534;2023-02-15T09:23:40;17.00;;;12.70;;
63320;SDS011;49449;48.800;9.534;2023-02-15T09:26:08;15.95;;;14.15;;
63320;SDS011;49449;48.800;9.534;2023-02-15T09:28:38;18.65;;;13.90;;
63320;SDS011;49449;48.800;9.534;2023-02-15T09:31:07;16.50;;;13.38;;
63320;SDS011;49449;48.800;9.534;2023-02-15T09:33:37;17.40;;;14.30;;
63320;SDS011;49449;48.800;9.534;2023-02-15T09:36:14;16.80;;;13.10;;
63320;SDS011;49449;48.800;9.534;2023-02-15T09:38:43;16.02;;;14.00;;
63320;SDS011;49449;48.800;9.534;2023-02-15T09:41:16;16.00;;;12.38;;
63320;SDS011;49449;48.800;9.534;2023-02-15T09:44:07;15.65;;;12.13;;
63320;SDS011;49449;48.800;9.534;2023-02-15T09:46:49;14.27;;;11.85;;
63320;SDS011;49449;48.800;9.534;2023-02-15T09:49:29;15.07;;;12.13;;
63320;SDS011;49449;48.800;9.534;2023-02-15T09:52:08;15.52;;;12.20;;
63320;SDS011;49449;48.800;9.534;2023-02-15T09:54:54;13.77;;;11.52;;
63320;SDS011;49449;48.800;9.534;2023-02-15T09:57:34;13.70;;;11.20;;
63320;SDS011;49449;48.800;9.534;2023-02-15T10:00:10;15.25;;;11.00;;
63320;SDS011;49449;48.800;9.534;2023-02-15T10:02:55;14.10;;;11.15;;
63320;SDS011;49449;48.800;9.534;2023-02-15T10:05:40;12.75;;;11.35;;
63320;SDS011;49449;48.800;9.534;2023-02-15T10:08:32;14.43;;;12.35;;
63320;SDS011;49449;48.800;9.534;2023-02-15T10:11:21;15.85;;;11.00;;
63320;SDS011;49449;48.800;9.534;2023-02-15T10:14:15;15.80;;;11.23;;
63320;SDS011;49449;48.800;9.534;2023-02-15T10:17:00;13.02;;;10.70;;
63320;SDS011;49449;48.800;9.534;2023-02-15T10:19:40;12.77;;;11.32;;
63320;SDS011;49449;48.800;9.534;2023-02-15T10:22:19;13.55;;;10.55;;
63320;SDS011;49449;48.800;9.534;2023-02-15T10:25:03;13.77;;;10.73;;
63320;SDS011;49449;48.800;9.534;2023-02-15T10:27:40;13.32;;;11.45;;
63320;SDS011;49449;48.800;9.534;2023-02-15T10:30:13;15.70;;;11.95;;
63320;SDS011;49449;48.800;9.534;2023-02-15T10:32:44;29.23;;;17.17;;
63320;SDS011;49449;48.800;9.534;2023-02-15T10:35:24;14.98;;;12.40;;
63320;SDS011;49449;48.800;9.534;2023-02-15T10:38:00;14.35;;;11.45;;
63320;SDS011;49449;48.800;9.534;2023-02-15T10:40:41;16.05;;;12.10;;
63320;SDS011;49449;48.800;9.534;2023-02-15T10:43:26;16.30;;;12.50;;
63320;SDS011;49449;48.800;9.534;2023-02-15T10:46:08;15.82;;;11.50;;
63320;SDS011;49449;48.800;9.534;2023-02-15T10:48:55;14.23;;;12.10;;
63320;SDS011;49449;48.800;9.534;2023-02-15T10:51:37;14.30;;;12.30;;
63320;SDS011;49449;48.800;9.534;2023-02-15T10:54:17;16.58;;;13.10;;
63320;SDS011;49449;48.800;9.534;2023-02-15T10:56:58;15.67;;;11.97;;
63320;SDS011;49449;48.800;9.534;2023-02-15T10:59:36;13.32;;;11.20;;
63320;SDS011;49449;48.800;9.534;2023-02-15T11:02:18;15.40;;;13.23;;
63320;SDS011;49449;48.800;9.534;2023-02-15T11:04:52;16.45;;;12.00;;
63320;SDS011;49449;48.800;9.534;2023-02-15T11:07:25;14.13;;;11.30;;
63320;SDS011;49449;48.800;9.534;2023-02-15T11:09:56;14.43;;;12.93;;
63320;SDS011;49449;48.800;9.534;2023-02-15T11:12:34;15.88;;;11.60;;
63320;SDS011;49449;48.800;9.534;2023-02-15T11:15:02;14.88;;;12.25;;
63320;SDS011;49449;48.800;9.534;2023-02-15T11:20:14;15.30;;;12.32;;
63320;SDS011;49449;48.800;9.534;2023-02-15T11:22:47;15.70;;;11.55;;
63320;SDS011;49449;48.800;9.534;2023-02-15T11:25:18;14.93;;;11.13;;
63320;SDS011;49449;48.800;9.534;2023-02-15T11:27:51;15.27;;;13.00;;
63320;SDS011;49449;48.800;9.534;2023-02-15T11:30:20;14.60;;;11.45;;
63320;SDS011;49449;48.800;9.534;2023-02-15T11:32:50;16.33;;;12.90;;
63320;SDS011;49449;48.800;9.534;2023-02-15T11:35:23;16.05;;;12.88;;
63320;SDS011;49449;48.800;9.534;2023-02-15T11:37:57;14.65;;;11.13;;
63320;SDS011;49449;48.800;9.534;2023-02-15T11:40:30;14.88;;;11.85;;
63320;SDS011;49449;48.800;9.534;2023-02-15T11:43:03;14.60;;;12.27;;
63320;SDS011;49449;48.800;9.534;2023-02-15T11:45:34;13.57;;;11.90;;
63320;SDS011;49449;48.800;9.534;2023-02-15T11:48:05;13.30;;;11.90;;
63320;SDS011;49449;48.800;9.534;2023-02-15T11:50:38;14.30;;;11.60;;
63320;SDS011;49449;48.800;9.534;2023-02-15T11:53:09;16.55;;;12.48;;
63320;SDS011;49449;48.800;9.534;2023-02-15T11:55:40;13.38;;;11.38;;
63320;SDS011;49449;48.800;9.534;2023-02-15T11:58:17;13.65;;;11.77;;
63320;SDS011;49449;48.800;9.534;2023-02-15T12:00:55;13.13;;;11.35;;
63320;SDS011;49449;48.800;9.534;2023-02-15T12:03:27;16.05;;;12.35;;
63320;SDS011;49449;48.800;9.534;2023-02-15T12:06:02;12.95;;;11.15;;
63320;SDS011;49449;48.800;9.534;2023-02-15T12:08:34;14.32;;;11.43;;
63320;SDS011;49449;48.800;9.534;2023-02-15T12:11:06;14.50;;;12.82;;
63320;SDS011;49449;48.800;9.534;2023-02-15T12:13:53;14.32;;;10.90;;
63320;SDS011;49449;48.800;9.534;2023-02-15T12:18:50;13.38;;;11.50;;
63320;SDS011;49449;48.800;9.534;2023-02-15T12:23:54;12.88;;;10.70;;
63320;SDS011;49449;48.800;9.534;2023-02-15T12:26:24;14.70;;;11.63;;
63320;SDS011;49449;48.800;9.534;2023-02-15T12:28:56;13.15;;;11.05;;
63320;SDS011;49449;48.800;9.534;2023-02-15T12:31:28;12.10;;;10.32;;
63320;SDS011;49449;48.800;9.534;2023-02-15T12:34:00;14.32;;;12.48;;
63320;SDS011;49449;48.800;9.534;2023-02-15T12:36:32;13.23;;;11.30;;
63320;SDS011;49449;48.800;9.534;2023-02-15T12:39:17;13.00;;;11.35;;
63320;SDS011;49449;48.800;9.534;2023-02-15T12:41:57;13.25;;;11.95;;
63320;SDS011;49449;48.800;9.534;2023-02-15T12:44:28;13.45;;;11.07;;
63320;SDS011;49449;48.800;9.534;2023-02-15T12:46:58;12.27;;;10.55;;
63320;SDS011;49449;48.800;9.534;2023-02-15T12:49:28;12.13;;;10.85;;
63320;SDS011;49449;48.800;9.534;2023-02-15T12:51:58;13.32;;;11.88;;
63320;SDS011;49449;48.800;9.534;2023-02-15T12:54:31;11.63;;;9.63;;
63320;SDS011;49449;48.800;9.534;2023-02-15T12:59:59;11.90;;;10.05;;
63320;SDS011;49449;48.800;9.534;2023-02-15T13:02:30;12.38;;;9.90;;
63320;SDS011;49449;48.800;9.534;2023-02-15T13:05:05;13.20;;;10.43;;
63320;SDS011;49449;48.800;9.534;2023-02-15T13:07:44;13.85;;;12.15;;
63320;SDS011;49449;48.800;9.534;2023-02-15T13:10:25;11.48;;;9.63;;
63320;SDS011;49449;48.800;9.534;2023-02-15T13:12:55;14.05;;;10.63;;
63320;SDS011;49449;48.800;9.534;2023-02-15T13:15:26;11.68;;;9.27;;
63320;SDS011;49449;48.800;9.534;2023-02-15T13:18:00;12.90;;;9.50;;
63320;SDS011;49449;48.800;9.534;2023-02-15T13:20:30;11.70;;;9.27;;
63320;SDS011;49449;48.800;9.534;2023-02-15T13:23:02;12.98;;;8.95;;
63320;SDS011;49449;48.800;9.534;2023-02-15T13:25:35;10.73;;;9.63;;
63320;SDS011;49449;48.800;9.534;2023-02-15T13:28:13;10.93;;;9.10;;
63320;SDS011;49449;48.800;9.534;2023-02-15T13:30:45;10.75;;;9.15;;
63320;SDS011;49449;48.800;9.534;2023-02-15T13:33:16;9.27;;;8.20;;
63320;SDS011;49449;48.800;9.534;2023-02-15T13:35:56;10.73;;;7.97;;
63320;SDS011;49449;48.800;9.534;2023-02-15T13:38:45;10.82;;;8.65;;
63320;SDS011;49449;48.800;9.534;2023-02-15T13:41:17;12.95;;;9.57;;
63320;SDS011;49449;48.800;9.534;2023-02-15T13:43:52;11.02;;;8.32;;
63320;SDS011;49449;48.800;9.534;2023-02-15T13:46:34;10.88;;;8.73;;
63320;SDS011;49449;48.800;9.534;2023-02-15T13:49:18;10.02;;;8.98;;
63320;SDS011;49449;48.800;9.534;2023-02-15T13:54:34;10.65;;;8.85;;
63320;SDS011;49449;48.800;9.534;2023-02-15T13:57:17;11.00;;;8.85;;
63320;SDS011;49449;48.800;9.534;2023-02-15T14:00:04;12.23;;;9.45;;
63320;SDS011;49449;48.800;9.534;2023-02-15T14:08:45;10.70;;;9.20;;
63320;SDS011;49449;48.800;9.534;2023-02-15T14:11:24;10.43;;;9.32;;
63320;SDS011;49449;48.800;9.534;2023-02-15T14:14:01;9.68;;;7.60;;
63320;SDS011;49449;48.800;9.534;2023-02-15T14:16:52;12.35;;;10.52;;
63320;SDS011;49449;48.800;9.534;2023-02-15T14:19:35;11.07;;;8.40;;
63320;SDS011;49449;48.800;9.534;2023-02-15T14:22:14;8.77;;;7.10;;
63320;SDS011;49449;48.800;9.534;2023-02-15T14:24:55;10.25;;;7.40;;
63320;SDS011;49449;48.800;9.534;2023-02-15T14:27:39;9.30;;;7.28;;
63320;SDS011;49449;48.800;9.534;2023-02-15T14:30:19;9.38;;;7.75;;
63320;SDS011;49449;48.800;9.534;2023-02-15T14:32:50;8.40;;;6.22;;
63320;SDS011;49449;48.800;9.534;2023-02-15T14:35:23;9.10;;;6.93;;
63320;SDS011;49449;48.800;9.534;2023-02-15T14:37:55;10.60;;;7.97;;
63320;SDS011;49449;48.800;9.534;2023-02-15T14:40:32;8.88;;;6.75;;
63320;SDS011;49449;48.800;9.534;2023-02-15T14:43:27;9.88;;;7.20;;
63320;SDS011;49449;48.800;9.534;2023-02-15T14:46:03;12.35;;;9.07;;
63320;SDS011;49449;48.800;9.534;2023-02-15T14:48:38;10.18;;;8.15;;
63320;SDS011;49449;48.800;9.534;2023-02-15T14:57:23;9.35;;;8.43;;
63320;SDS011;49449;48.800;9.534;2023-02-15T14:59:53;11.20;;;8.07;;
63320;SDS011;49449;48.800;9.534;2023-02-15T15:04:56;10.68;;;8.55;;
63320;SDS011;49449;48.800;9.534;2023-02-15T15:07:34;8.60;;;7.65;;
63320;SDS011;49449;48.800;9.534;2023-02-15T15:10:05;10.00;;;6.90;;
63320;SDS011;49449;48.800;9.534;2023-02-15T15:12:55;10.45;;;8.10;;
63320;SDS011;49449;48.800;9.534;2023-02-15T15:15:32;8.85;;;6.57;;
63320;SDS011;49449;48.800;9.534;2023-02-15T15:18:03;10.15;;;9.07;;
63320;SDS011;49449;48.800;9.534;2023-02-15T15:20:45;10.25;;;7.60;;
63320;SDS011;49449;48.800;9.534;2023-02-15T15:26:25;9.32;;;7.82;;
63320;SDS011;49449;48.800;9.534;2023-02-15T15:28:57;11.15;;;7.28;;
63320;SDS011;49449;48.800;9.534;2023-02-15T15:31:29;8.75;;;6.57;;
63320;SDS011;49449;48.800;9.534;2023-02-15T15:34:17;9.60;;;7.03;;
63320;SDS011;49449;48.800;9.534;2023-02-15T15:37:03;9.02;;;6.18;;
63320;SDS011;49449;48.800;9.534;2023-02-15T15:43:16;8.45;;;6.63;;
63320;SDS011;49449;48.800;9.534;2023-02-15T15:46:08;10.07;;;7.53;;